Mariner Of The Seas — C6FV9 — position and weather

sailwx.info

Track history (hours):
 
Tides and Currents Weather Stations Pressure Air Temp Water Temp Dewpoint Dewpoint Depression Visibility Wind Speed Wind Dir Waves Ship Positions

Mariner Of The Seas

Operator: Royal Caribbean Cruises Ltd

Last reported at 2018-Dec-11 04:07 UTC. Time now 2018-Dec-12 15:22 UTC.
Position N 26°11' W 079°21'.

Type: Passenger vessel. MMSI: 311493000.

Date/timePositionNaut miles runAvg speedWind from/ knotsBaromVisibWave heightAir tempDewpointWater temp
2018-Dec-11 04:07N 26°11' W 079°21'220.2
2018-Dec-11 04:00N 26°09' W 079°23'1020.4
2018-Dec-11 03:30N 26°04' W 079°32'1020.6
2018-Dec-11 03:00N 25°59' W 079°42'1020.6
2018-Dec-11 02:30N 25°53' W 079°52'1020.3
2018-Dec-11 02:00N 25°48' W 080°01'612.1
2018-Dec-11 01:30N 25°46' W 080°08'2 3.3
2018-Dec-11 00:59N 25°46' W 080°09'0 0.0
2018-Dec-11 00:29N 25°46' W 080°09'0 0.0
2018-Dec-10 23:59N 25°46' W 080°09'0 0.0
2018-Dec-10 23:26N 25°46' W 080°09'0 0.0
2018-Dec-10 22:59N 25°46' W 080°09'0 0.0
2018-Dec-10 22:29N 25°46' W 080°09'0 0.0
2018-Dec-10 21:53N 25°46' W 080°09'0 0.0
2018-Dec-10 21:26N 25°46' W 080°09'0 0.0
2018-Dec-10 20:59N 25°46' W 080°09'0 0.0
2018-Dec-10 20:29N 25°46' W 080°09'0 0.0
2018-Dec-10 19:59N 25°46' W 080°09'0 0.0
2018-Dec-10 19:29N 25°46' W 080°09'0 0.0
2018-Dec-10 18:59N 25°46' W 080°09'0 0.0
2018-Dec-10 18:29N 25°46' W 080°09'0 0.0
2018-Dec-10 17:59N 25°46' W 080°09'0 0.0
2018-Dec-10 17:29N 25°46' W 080°09'0 0.0
2018-Dec-10 16:59N 25°46' W 080°09'0 0.0
2018-Dec-10 16:29N 25°46' W 080°09'0 0.0
2018-Dec-10 15:59N 25°46' W 080°09'0 0.0
2018-Dec-10 15:20N 25°46' W 080°09'0 0.0
2018-Dec-10 14:56N 25°46' W 080°09'0 0.0
2018-Dec-10 14:20N 25°46' W 080°09'0 0.0
2018-Dec-10 13:53N 25°46' W 080°09'0 0.0
2018-Dec-10 13:23N 25°46' W 080°09'0 0.0
2018-Dec-10 12:53N 25°46' W 080°09'0 0.0
2018-Dec-10 12:29N 25°46' W 080°09'0 0.0
2018-Dec-10 12:01N 25°46' W 080°09'0 0.0
2018-Dec-10 11:29N 25°46' W 080°09'0 0.0
2018-Dec-10 10:59N 25°46' W 080°09'1 3.1
2018-Dec-10 10:30N 25°47' W 080°11'2 4.7
2018-Dec-10 10:00N 25°46' W 080°09'611.7
2018-Dec-10 09:30N 25°47' W 080°02'5 9.2
2018-Dec-10 09:00N 25°49' W 079°58'510.3
2018-Dec-10 08:30N 25°51' W 079°52'612.4
2018-Dec-10 08:00N 25°54' W 079°46'137 4.6
2018-Dec-09 02:00N 25°24' W 077°18'120 5.3 100 / 221020.310.8 24.0 26.0
2018-Dec-08 03:16N 26°12' W 079°20'3 9.8
2018-Dec-08 03:00N 26°11' W 079°22'510.2
2018-Dec-08 02:30N 26°08' W 079°27'510.6
2018-Dec-08 02:00N 26°05' W 079°32'5345.9
2018-Dec-08 02:00N 26°00' W 079°30'613.3 080 / 171023.610.8 24.0 26.0
2018-Dec-08 01:30N 26°02' W 079°37'510.4
2018-Dec-08 01:00N 25°59' W 079°42'510.5
2018-Dec-08 00:30N 25°56' W 079°47'510.4
2018-Dec-08 00:00N 25°53' W 079°51'510.4
2018-Dec-07 23:30N 25°50' W 079°56'510.4
2018-Dec-07 23:00N 25°48' W 080°01'4 7.9
2018-Dec-07 22:30N 25°46' W 080°05'4 8.4
2018-Dec-07 22:00N 25°46' W 080°09'0 0.1
2018-Dec-07 21:30N 25°46' W 080°09'0 0.0
2018-Dec-07 21:00N 25°46' W 080°09'0 0.0
2018-Dec-07 20:30N 25°46' W 080°09'0 0.0
2018-Dec-07 20:00N 25°46' W 080°09'0 0.0
2018-Dec-07 19:30N 25°46' W 080°09'0 0.0
2018-Dec-07 19:00N 25°46' W 080°09'0 0.0
2018-Dec-07 18:30N 25°46' W 080°09'0 0.0
2018-Dec-07 18:00N 25°46' W 080°09'0 0.0
2018-Dec-07 17:24N 25°46' W 080°09'0 0.0
2018-Dec-07 16:57N 25°46' W 080°09'0 0.0
2018-Dec-07 16:30N 25°46' W 080°09'0 0.0
2018-Dec-07 15:57N 25°46' W 080°09'0 0.0
2018-Dec-07 15:27N 25°46' W 080°09'0 0.0
2018-Dec-07 14:57N 25°46' W 080°09'0 0.0
2018-Dec-07 14:30N 25°46' W 080°09'0 0.0
2018-Dec-07 14:00N 25°46' W 080°09'0 0.0
2018-Dec-07 13:30N 25°46' W 080°09'0 0.0
2018-Dec-07 13:00N 25°46' W 080°09'0 0.0
2018-Dec-07 12:27N 25°46' W 080°09'0 0.0
2018-Dec-07 12:00N 25°46' W 080°09'0 0.0
2018-Dec-07 11:30N 25°46' W 080°09'0 0.1
2018-Dec-07 11:00N 25°46' W 080°09'2 3.0
2018-Dec-07 10:30N 25°47' W 080°11'3 6.8
2018-Dec-07 10:00N 25°46' W 080°08'611.3
2018-Dec-07 09:30N 25°48' W 080°02'511.1
2018-Dec-07 09:00N 25°49' W 079°56'714.0
2018-Dec-07 08:30N 25°53' W 079°49'713.1
2018-Dec-07 08:00N 25°57' W 079°43'11619.3
2018-Dec-07 02:00N 25°42' W 077°36'21 0.4 050 / 241025.010.8 23.0 25.0
2018-Dec-05 03:00N 26°00' W 077°48'52 3.4 260 / 141016.110.8 26.0 26.0
2018-Dec-04 11:37N 26°07' W 078°45'5181.0
2018-Dec-04 11:00N 26°06' W 079°42'5132.8 200 / 101016.0 24.023.927.4
2018-Dec-04 09:26N 26°06' W 078°45'31 4.4
2018-Dec-04 02:23N 26°13' W 079°19'411.5
2018-Dec-04 02:00N 26°10' W 079°23'611.9
2018-Dec-04 01:30N 26°07' W 079°28'612.2
2018-Dec-04 01:00N 26°04' W 079°34'611.9
2018-Dec-04 00:30N 25°60' W 079°39'611.6
2018-Dec-04 00:00N 25°57' W 079°45'611.3
2018-Dec-03 23:30N 25°54' W 079°50'611.2
2018-Dec-03 23:00N 25°51' W 079°55'510.9
2018-Dec-03 22:30N 25°48' W 080°01'510.4
2018-Dec-03 22:00N 25°46' W 080°06'4 7.0
2018-Dec-03 21:30N 25°46' W 080°09'0 0.0
2018-Dec-03 20:59N 25°46' W 080°09'0 0.0
2018-Dec-03 20:29N 25°46' W 080°09'0 0.0
2018-Dec-03 19:50N 25°46' W 080°09'0 0.0
2018-Dec-03 19:26N 25°46' W 080°09'0 0.0
2018-Dec-03 18:59N 25°46' W 080°09'0 0.0
2018-Dec-03 18:23N 25°46' W 080°09'0 0.0
2018-Dec-03 17:59N 25°46' W 080°09'0 0.0
2018-Dec-03 17:23N 25°46' W 080°09'0 0.0
2018-Dec-03 16:56N 25°46' W 080°09'0 0.0
2018-Dec-03 16:23N 25°46' W 080°09'0 0.0
2018-Dec-03 15:56N 25°46' W 080°09'0 0.0
2018-Dec-03 15:26N 25°46' W 080°09'0 0.0
2018-Dec-03 14:56N 25°46' W 080°09'0 0.0
2018-Dec-03 14:26N 25°46' W 080°09'0 0.0
2018-Dec-03 13:56N 25°46' W 080°09'0 0.0
2018-Dec-03 13:29N 25°46' W 080°09'0 0.0
2018-Dec-03 12:59N 25°46' W 080°09'0 0.0
2018-Dec-03 12:26N 25°46' W 080°09'0 0.0
2018-Dec-03 11:59N 25°46' W 080°09'0 0.0
2018-Dec-03 11:29N 25°46' W 080°09'0 0.3
2018-Dec-03 11:00N 25°46' W 080°10'1 2.7
2018-Dec-03 10:30N 25°47' W 080°11'3 6.7
2018-Dec-03 10:00N 25°46' W 080°08'510.6
2018-Dec-03 09:30N 25°48' W 080°02'510.7
2018-Dec-03 09:00N 25°49' W 079°57'713.2
2018-Dec-03 08:30N 25°53' W 079°50'613.2
2018-Dec-03 08:00N 25°55' W 079°43'4213.1
2018-Dec-03 04:51N 26°11' W 079°00'514.5
2018-Dec-03 04:30N 26°10' W 078°55'  
Track history (hours):
 
Tides and Currents Weather Stations Pressure Air Temp Water Temp Dewpoint Dewpoint Depression Visibility Wind Speed Wind Dir Waves Ship Positions

Mariner Of The Seas

Operator: Royal Caribbean Cruises Ltd

Last reported at 2018-Dec-11 04:07 UTC. Time now 2018-Dec-12 15:22 UTC.
Position N 26°11' W 079°21'.

Type: Passenger vessel. MMSI: 311493000.

Date/timePositionNaut miles runAvg speedWind from/ knotsBaromVisibWave heightAir tempDewpointWater temp
2018-Dec-11 04:07N 26°11' W 079°21'220.2
2018-Dec-11 04:00N 26°09' W 079°23'1020.4
2018-Dec-11 03:30N 26°04' W 079°32'1020.6
2018-Dec-11 03:00N 25°59' W 079°42'1020.6
2018-Dec-11 02:30N 25°53' W 079°52'1020.3
2018-Dec-11 02:00N 25°48' W 080°01'612.1
2018-Dec-11 01:30N 25°46' W 080°08'2 3.3
2018-Dec-11 00:59N 25°46' W 080°09'0 0.0
2018-Dec-11 00:29N 25°46' W 080°09'0 0.0
2018-Dec-10 23:59N 25°46' W 080°09'0 0.0
2018-Dec-10 23:26N 25°46' W 080°09'0 0.0
2018-Dec-10 22:59N 25°46' W 080°09'0 0.0
2018-Dec-10 22:29N 25°46' W 080°09'0 0.0
2018-Dec-10 21:53N 25°46' W 080°09'0 0.0
2018-Dec-10 21:26N 25°46' W 080°09'0 0.0
2018-Dec-10 20:59N 25°46' W 080°09'0 0.0
2018-Dec-10 20:29N 25°46' W 080°09'0 0.0
2018-Dec-10 19:59N 25°46' W 080°09'0 0.0
2018-Dec-10 19:29N 25°46' W 080°09'0 0.0
2018-Dec-10 18:59N 25°46' W 080°09'0 0.0
2018-Dec-10 18:29N 25°46' W 080°09'0 0.0
2018-Dec-10 17:59N 25°46' W 080°09'0 0.0
2018-Dec-10 17:29N 25°46' W 080°09'0 0.0
2018-Dec-10 16:59N 25°46' W 080°09'0 0.0
2018-Dec-10 16:29N 25°46' W 080°09'0 0.0
2018-Dec-10 15:59N 25°46' W 080°09'0 0.0
2018-Dec-10 15:20N 25°46' W 080°09'0 0.0
2018-Dec-10 14:56N 25°46' W 080°09'0 0.0
2018-Dec-10 14:20N 25°46' W 080°09'0 0.0
2018-Dec-10 13:53N 25°46' W 080°09'0 0.0
2018-Dec-10 13:23N 25°46' W 080°09'0 0.0
2018-Dec-10 12:53N 25°46' W 080°09'0 0.0
2018-Dec-10 12:29N 25°46' W 080°09'0 0.0
2018-Dec-10 12:01N 25°46' W 080°09'0 0.0
2018-Dec-10 11:29N 25°46' W 080°09'0 0.0
2018-Dec-10 10:59N 25°46' W 080°09'1 3.1
2018-Dec-10 10:30N 25°47' W 080°11'2 4.7
2018-Dec-10 10:00N 25°46' W 080°09'611.7
2018-Dec-10 09:30N 25°47' W 080°02'5 9.2
2018-Dec-10 09:00N 25°49' W 079°58'510.3
2018-Dec-10 08:30N 25°51' W 079°52'612.4
2018-Dec-10 08:00N 25°54' W 079°46'137 4.6
2018-Dec-09 02:00N 25°24' W 077°18'120 5.3 100 / 221020.310.8 24.0 26.0
2018-Dec-08 03:16N 26°12' W 079°20'3 9.8
2018-Dec-08 03:00N 26°11' W 079°22'510.2
2018-Dec-08 02:30N 26°08' W 079°27'510.6
2018-Dec-08 02:00N 26°05' W 079°32'5345.9
2018-Dec-08 02:00N 26°00' W 079°30'613.3 080 / 171023.610.8 24.0 26.0
2018-Dec-08 01:30N 26°02' W 079°37'510.4
2018-Dec-08 01:00N 25°59' W 079°42'510.5
2018-Dec-08 00:30N 25°56' W 079°47'510.4
2018-Dec-08 00:00N 25°53' W 079°51'510.4
2018-Dec-07 23:30N 25°50' W 079°56'510.4
2018-Dec-07 23:00N 25°48' W 080°01'4 7.9
2018-Dec-07 22:30N 25°46' W 080°05'4 8.4
2018-Dec-07 22:00N 25°46' W 080°09'0 0.1
2018-Dec-07 21:30N 25°46' W 080°09'0 0.0
2018-Dec-07 21:00N 25°46' W 080°09'0 0.0
2018-Dec-07 20:30N 25°46' W 080°09'0 0.0
2018-Dec-07 20:00N 25°46' W 080°09'0 0.0
2018-Dec-07 19:30N 25°46' W 080°09'0 0.0
2018-Dec-07 19:00N 25°46' W 080°09'0 0.0
2018-Dec-07 18:30N 25°46' W 080°09'0 0.0
2018-Dec-07 18:00N 25°46' W 080°09'0 0.0
2018-Dec-07 17:24N 25°46' W 080°09'0 0.0
2018-Dec-07 16:57N 25°46' W 080°09'0 0.0
2018-Dec-07 16:30N 25°46' W 080°09'0 0.0
2018-Dec-07 15:57N 25°46' W 080°09'0 0.0
2018-Dec-07 15:27N 25°46' W 080°09'0 0.0
2018-Dec-07 14:57N 25°46' W 080°09'0 0.0
2018-Dec-07 14:30N 25°46' W 080°09'0 0.0
2018-Dec-07 14:00N 25°46' W 080°09'0 0.0
2018-Dec-07 13:30N 25°46' W 080°09'0 0.0
2018-Dec-07 13:00N 25°46' W 080°09'0 0.0
2018-Dec-07 12:27N 25°46' W 080°09'0 0.0
2018-Dec-07 12:00N 25°46' W 080°09'0 0.0
2018-Dec-07 11:30N 25°46' W 080°09'0 0.1
2018-Dec-07 11:00N 25°46' W 080°09'2 3.0
2018-Dec-07 10:30N 25°47' W 080°11'3 6.8
2018-Dec-07 10:00N 25°46' W 080°08'611.3
2018-Dec-07 09:30N 25°48' W 080°02'511.1
2018-Dec-07 09:00N 25°49' W 079°56'714.0
2018-Dec-07 08:30N 25°53' W 079°49'713.1
2018-Dec-07 08:00N 25°57' W 079°43'11619.3
2018-Dec-07 02:00N 25°42' W 077°36'21 0.4 050 / 241025.010.8 23.0 25.0
2018-Dec-05 03:00N 26°00' W 077°48'52 3.4 260 / 141016.110.8 26.0 26.0
2018-Dec-04 11:37N 26°07' W 078°45'5181.0
2018-Dec-04 11:00N 26°06' W 079°42'5132.8 200 / 101016.0 24.023.927.4
2018-Dec-04 09:26N 26°06' W 078°45'31 4.4
2018-Dec-04 02:23N 26°13' W 079°19'411.5
2018-Dec-04 02:00N 26°10' W 079°23'611.9
2018-Dec-04 01:30N 26°07' W 079°28'612.2
2018-Dec-04 01:00N 26°04' W 079°34'611.9
2018-Dec-04 00:30N 25°60' W 079°39'611.6
2018-Dec-04 00:00N 25°57' W 079°45'611.3
2018-Dec-03 23:30N 25°54' W 079°50'611.2
2018-Dec-03 23:00N 25°51' W 079°55'510.9
2018-Dec-03 22:30N 25°48' W 080°01'510.4
2018-Dec-03 22:00N 25°46' W 080°06'4 7.0
2018-Dec-03 21:30N 25°46' W 080°09'0 0.0
2018-Dec-03 20:59N 25°46' W 080°09'0 0.0
2018-Dec-03 20:29N 25°46' W 080°09'0 0.0
2018-Dec-03 19:50N 25°46' W 080°09'0 0.0
2018-Dec-03 19:26N 25°46' W 080°09'0 0.0
2018-Dec-03 18:59N 25°46' W 080°09'0 0.0
2018-Dec-03 18:23N 25°46' W 080°09'0 0.0
2018-Dec-03 17:59N 25°46' W 080°09'0 0.0
2018-Dec-03 17:23N 25°46' W 080°09'0 0.0
2018-Dec-03 16:56N 25°46' W 080°09'0 0.0
2018-Dec-03 16:23N 25°46' W 080°09'0 0.0
2018-Dec-03 15:56N 25°46' W 080°09'0 0.0
2018-Dec-03 15:26N 25°46' W 080°09'0 0.0
2018-Dec-03 14:56N 25°46' W 080°09'0 0.0
2018-Dec-03 14:26N 25°46' W 080°09'0 0.0
2018-Dec-03 13:56N 25°46' W 080°09'0 0.0
2018-Dec-03 13:29N 25°46' W 080°09'0 0.0
2018-Dec-03 12:59N 25°46' W 080°09'0 0.0
2018-Dec-03 12:26N 25°46' W 080°09'0 0.0
2018-Dec-03 11:59N 25°46' W 080°09'0 0.0
2018-Dec-03 11:29N 25°46' W 080°09'0 0.3
2018-Dec-03 11:00N 25°46' W 080°10'1 2.7
2018-Dec-03 10:30N 25°47' W 080°11'3 6.7
2018-Dec-03 10:00N 25°46' W 080°08'510.6
2018-Dec-03 09:30N 25°48' W 080°02'510.7
2018-Dec-03 09:00N 25°49' W 079°57'713.2
2018-Dec-03 08:30N 25°53' W 079°50'613.2
2018-Dec-03 08:00N 25°55' W 079°43'4213.1
2018-Dec-03 04:51N 26°11' W 079°00'514.5
2018-Dec-03 04:30N 26°10' W 078°55'  

Dump ship's entire track history